sensor_id;sensor_type;location;lat;lon;timestamp;P1;durP1;ratioP1;P2;durP2;ratioP2
11422;SDS011;5768;51.476;7.210;2022-08-19T00:04:40;8.02;;;7.28;;
11422;SDS011;5768;51.476;7.210;2022-08-19T00:09:42;7.47;;;6.65;;
11422;SDS011;5768;51.476;7.210;2022-08-19T00:14:46;7.45;;;6.85;;
11422;SDS011;5768;51.476;7.210;2022-08-19T00:19:48;7.80;;;7.05;;
11422;SDS011;5768;51.476;7.210;2022-08-19T00:24:50;7.80;;;7.03;;
11422;SDS011;5768;51.476;7.210;2022-08-19T00:29:54;7.32;;;6.72;;
11422;SDS011;5768;51.476;7.210;2022-08-19T00:34:56;7.47;;;6.88;;
11422;SDS011;5768;51.476;7.210;2022-08-19T00:39:58;7.82;;;7.07;;
11422;SDS011;5768;51.476;7.210;2022-08-19T00:45:05;8.18;;;7.35;;
11422;SDS011;5768;51.476;7.210;2022-08-19T00:50:16;8.90;;;7.50;;
11422;SDS011;5768;51.476;7.210;2022-08-19T00:55:23;7.95;;;7.22;;
11422;SDS011;5768;51.476;7.210;2022-08-19T01:00:31;8.10;;;7.30;;
11422;SDS011;5768;51.476;7.210;2022-08-19T01:05:35;9.05;;;8.23;;
11422;SDS011;5768;51.476;7.210;2022-08-19T01:10:39;8.88;;;7.82;;
11422;SDS011;5768;51.476;7.210;2022-08-19T01:15:48;8.18;;;7.32;;
11422;SDS011;5768;51.476;7.210;2022-08-19T01:20:56;8.35;;;7.53;;
11422;SDS011;5768;51.476;7.210;2022-08-19T01:26:08;8.63;;;7.78;;
11422;SDS011;5768;51.476;7.210;2022-08-19T01:31:12;9.35;;;8.45;;
11422;SDS011;5768;51.476;7.210;2022-08-19T01:36:21;9.32;;;8.32;;
11422;SDS011;5768;51.476;7.210;2022-08-19T01:41:28;10.40;;;9.52;;
11422;SDS011;5768;51.476;7.210;2022-08-19T01:46:31;10.38;;;9.48;;
11422;SDS011;5768;51.476;7.210;2022-08-19T01:51:34;11.15;;;10.07;;
11422;SDS011;5768;51.476;7.210;2022-08-19T01:56:37;12.07;;;9.75;;
11422;SDS011;5768;51.476;7.210;2022-08-19T02:01:40;10.73;;;9.73;;
11422;SDS011;5768;51.476;7.210;2022-08-19T02:06:43;11.05;;;10.05;;
11422;SDS011;5768;51.476;7.210;2022-08-19T02:11:46;11.38;;;10.30;;
11422;SDS011;5768;51.476;7.210;2022-08-19T02:16:48;11.15;;;10.15;;
11422;SDS011;5768;51.476;7.210;2022-08-19T02:21:57;11.18;;;10.10;;
11422;SDS011;5768;51.476;7.210;2022-08-19T02:27:00;12.00;;;11.00;;
11422;SDS011;5768;51.476;7.210;2022-08-19T02:32:03;11.77;;;10.07;;
11422;SDS011;5768;51.476;7.210;2022-08-19T02:37:06;11.00;;;9.98;;
11422;SDS011;5768;51.476;7.210;2022-08-19T02:42:30;11.07;;;10.10;;
11422;SDS011;5768;51.476;7.210;2022-08-19T02:47:32;10.95;;;9.95;;
11422;SDS011;5768;51.476;7.210;2022-08-19T02:52:35;10.98;;;10.07;;
11422;SDS011;5768;51.476;7.210;2022-08-19T02:57:39;10.25;;;9.45;;
11422;SDS011;5768;51.476;7.210;2022-08-19T03:02:42;9.93;;;9.13;;
11422;SDS011;5768;51.476;7.210;2022-08-19T03:07:44;10.98;;;9.80;;
11422;SDS011;5768;51.476;7.210;2022-08-19T03:12:48;16.98;;;9.15;;
11422;SDS011;5768;51.476;7.210;2022-08-19T03:17:50;13.50;;;9.70;;
11422;SDS011;5768;51.476;7.210;2022-08-19T03:22:52;11.63;;;9.38;;
11422;SDS011;5768;51.476;7.210;2022-08-19T03:27:56;11.20;;;8.98;;
11422;SDS011;5768;51.476;7.210;2022-08-19T03:32:58;9.77;;;8.88;;
11422;SDS011;5768;51.476;7.210;2022-08-19T03:38:00;10.63;;;9.63;;
11422;SDS011;5768;51.476;7.210;2022-08-19T03:43:03;11.05;;;10.02;;
11422;SDS011;5768;51.476;7.210;2022-08-19T03:48:06;11.05;;;9.90;;
11422;SDS011;5768;51.476;7.210;2022-08-19T03:53:08;11.50;;;10.50;;
11422;SDS011;5768;51.476;7.210;2022-08-19T03:58:12;11.00;;;10.00;;
11422;SDS011;5768;51.476;7.210;2022-08-19T04:03:14;12.65;;;11.32;;
11422;SDS011;5768;51.476;7.210;2022-08-19T04:08:19;13.23;;;10.93;;
11422;SDS011;5768;51.476;7.210;2022-08-19T04:13:24;11.30;;;10.27;;
11422;SDS011;5768;51.476;7.210;2022-08-19T04:18:26;10.85;;;9.93;;
11422;SDS011;5768;51.476;7.210;2022-08-19T04:23:29;10.95;;;9.95;;
11422;SDS011;5768;51.476;7.210;2022-08-19T04:28:34;11.38;;;10.32;;
11422;SDS011;5768;51.476;7.210;2022-08-19T04:33:36;11.57;;;10.57;;
11422;SDS011;5768;51.476;7.210;2022-08-19T04:38:39;13.15;;;11.85;;
11422;SDS011;5768;51.476;7.210;2022-08-19T04:43:42;12.20;;;11.02;;
11422;SDS011;5768;51.476;7.210;2022-08-19T04:48:49;14.75;;;13.45;;
11422;SDS011;5768;51.476;7.210;2022-08-19T04:53:53;14.63;;;13.23;;
11422;SDS011;5768;51.476;7.210;2022-08-19T04:58:56;13.85;;;12.65;;
11422;SDS011;5768;51.476;7.210;2022-08-19T05:04:04;14.27;;;12.93;;
11422;SDS011;5768;51.476;7.210;2022-08-19T05:09:07;13.27;;;12.18;;
11422;SDS011;5768;51.476;7.210;2022-08-19T05:14:12;13.35;;;12.10;;
11422;SDS011;5768;51.476;7.210;2022-08-19T05:19:14;13.75;;;12.45;;
11422;SDS011;5768;51.476;7.210;2022-08-19T05:24:34;16.15;;;13.35;;
11422;SDS011;5768;51.476;7.210;2022-08-19T05:29:39;14.80;;;13.02;;
11422;SDS011;5768;51.476;7.210;2022-08-19T05:34:41;15.35;;;13.85;;
11422;SDS011;5768;51.476;7.210;2022-08-19T05:39:52;16.15;;;14.65;;
11422;SDS011;5768;51.476;7.210;2022-08-19T05:44:57;16.27;;;14.68;;
11422;SDS011;5768;51.476;7.210;2022-08-19T05:50:00;20.13;;;16.38;;
11422;SDS011;5768;51.476;7.210;2022-08-19T05:55:09;21.80;;;15.75;;
11422;SDS011;5768;51.476;7.210;2022-08-19T06:00:14;17.90;;;15.32;;
11422;SDS011;5768;51.476;7.210;2022-08-19T06:05:20;18.98;;;16.88;;
11422;SDS011;5768;51.476;7.210;2022-08-19T06:10:23;18.52;;;16.58;;
11422;SDS011;5768;51.476;7.210;2022-08-19T06:15:27;17.63;;;15.85;;
11422;SDS011;5768;51.476;7.210;2022-08-19T06:20:30;17.52;;;15.75;;
11422;SDS011;5768;51.476;7.210;2022-08-19T06:25:35;17.80;;;15.18;;
11422;SDS011;5768;51.476;7.210;2022-08-19T06:30:38;16.50;;;14.80;;
11422;SDS011;5768;51.476;7.210;2022-08-19T06:35:41;15.90;;;14.23;;
11422;SDS011;5768;51.476;7.210;2022-08-19T06:40:44;15.98;;;14.48;;
11422;SDS011;5768;51.476;7.210;2022-08-19T06:45:47;19.95;;;15.85;;
11422;SDS011;5768;51.476;7.210;2022-08-19T06:50:52;19.48;;;16.65;;
11422;SDS011;5768;51.476;7.210;2022-08-19T06:55:54;19.35;;;17.45;;
11422;SDS011;5768;51.476;7.210;2022-08-19T07:01:01;20.33;;;18.40;;
11422;SDS011;5768;51.476;7.210;2022-08-19T07:06:07;20.52;;;17.95;;
11422;SDS011;5768;51.476;7.210;2022-08-19T07:11:14;22.30;;;20.00;;
11422;SDS011;5768;51.476;7.210;2022-08-19T07:16:20;21.15;;;18.83;;
11422;SDS011;5768;51.476;7.210;2022-08-19T07:21:24;21.88;;;19.10;;
11422;SDS011;5768;51.476;7.210;2022-08-19T07:26:30;21.23;;;19.02;;
11422;SDS011;5768;51.476;7.210;2022-08-19T07:31:40;20.63;;;18.27;;
11422;SDS011;5768;51.476;7.210;2022-08-19T07:36:43;20.15;;;18.13;;
11422;SDS011;5768;51.476;7.210;2022-08-19T07:41:46;18.90;;;16.90;;
11422;SDS011;5768;51.476;7.210;2022-08-19T07:46:52;21.98;;;16.52;;
11422;SDS011;5768;51.476;7.210;2022-08-19T07:51:58;20.38;;;17.00;;
11422;SDS011;5768;51.476;7.210;2022-08-19T07:57:04;19.13;;;15.82;;
11422;SDS011;5768;51.476;7.210;2022-08-19T08:02:09;18.10;;;16.33;;
11422;SDS011;5768;51.476;7.210;2022-08-19T08:07:14;17.30;;;15.57;;
11422;SDS011;5768;51.476;7.210;2022-08-19T08:12:35;18.77;;;16.75;;
11422;SDS011;5768;51.476;7.210;2022-08-19T08:17:43;20.98;;;18.50;;
11422;SDS011;5768;51.476;7.210;2022-08-19T08:22:52;20.00;;;17.90;;
11422;SDS011;5768;51.476;7.210;2022-08-19T08:28:12;21.60;;;19.15;;
11422;SDS011;5768;51.476;7.210;2022-08-19T08:33:18;22.48;;;19.92;;
11422;SDS011;5768;51.476;7.210;2022-08-19T08:38:25;22.52;;;20.40;;
11422;SDS011;5768;51.476;7.210;2022-08-19T08:43:29;23.70;;;21.30;;
11422;SDS011;5768;51.476;7.210;2022-08-19T08:48:37;25.33;;;22.00;;
11422;SDS011;5768;51.476;7.210;2022-08-19T08:53:48;21.17;;;19.02;;
11422;SDS011;5768;51.476;7.210;2022-08-19T08:58:54;26.20;;;23.73;;
11422;SDS011;5768;51.476;7.210;2022-08-19T09:04:03;27.08;;;24.48;;
11422;SDS011;5768;51.476;7.210;2022-08-19T09:09:11;29.83;;;26.73;;
11422;SDS011;5768;51.476;7.210;2022-08-19T09:14:22;30.08;;;27.27;;
11422;SDS011;5768;51.476;7.210;2022-08-19T09:19:47;35.10;;;31.17;;
11422;SDS011;5768;51.476;7.210;2022-08-19T09:24:54;29.88;;;27.02;;
11422;SDS011;5768;51.476;7.210;2022-08-19T09:29:57;32.05;;;29.15;;
11422;SDS011;5768;51.476;7.210;2022-08-19T09:35:01;30.48;;;27.70;;
11422;SDS011;5768;51.476;7.210;2022-08-19T09:40:04;27.00;;;24.50;;
11422;SDS011;5768;51.476;7.210;2022-08-19T09:45:09;30.42;;;27.40;;
11422;SDS011;5768;51.476;7.210;2022-08-19T09:50:13;29.15;;;26.25;;
11422;SDS011;5768;51.476;7.210;2022-08-19T09:55:15;28.52;;;25.67;;
11422;SDS011;5768;51.476;7.210;2022-08-19T10:00:18;26.92;;;23.30;;
11422;SDS011;5768;51.476;7.210;2022-08-19T10:05:23;23.38;;;21.08;;
11422;SDS011;5768;51.476;7.210;2022-08-19T10:10:43;18.80;;;17.00;;
11422;SDS011;5768;51.476;7.210;2022-08-19T10:15:46;20.60;;;18.45;;
11422;SDS011;5768;51.476;7.210;2022-08-19T10:21:01;18.35;;;15.98;;
11422;SDS011;5768;51.476;7.210;2022-08-19T10:26:11;15.32;;;13.85;;
11422;SDS011;5768;51.476;7.210;2022-08-19T10:31:18;14.82;;;13.48;;
11422;SDS011;5768;51.476;7.210;2022-08-19T10:36:25;13.18;;;11.88;;
11422;SDS011;5768;51.476;7.210;2022-08-19T10:41:32;14.52;;;13.13;;
11422;SDS011;5768;51.476;7.210;2022-08-19T10:46:38;13.70;;;12.50;;
11422;SDS011;5768;51.476;7.210;2022-08-19T10:51:44;14.10;;;12.80;;
11422;SDS011;5768;51.476;7.210;2022-08-19T10:57:04;18.45;;;14.77;;
11422;SDS011;5768;51.476;7.210;2022-08-19T11:02:07;16.17;;;14.68;;
11422;SDS011;5768;51.476;7.210;2022-08-19T11:07:13;16.08;;;14.45;;
11422;SDS011;5768;51.476;7.210;2022-08-19T11:12:15;19.42;;;17.63;;
11422;SDS011;5768;51.476;7.210;2022-08-19T11:17:19;21.00;;;17.73;;
11422;SDS011;5768;51.476;7.210;2022-08-19T11:22:25;19.75;;;17.95;;
11422;SDS011;5768;51.476;7.210;2022-08-19T11:27:27;20.88;;;18.80;;
11422;SDS011;5768;51.476;7.210;2022-08-19T11:32:30;19.80;;;17.75;;
11422;SDS011;5768;51.476;7.210;2022-08-19T11:37:35;18.50;;;16.88;;
11422;SDS011;5768;51.476;7.210;2022-08-19T11:42:38;18.63;;;17.05;;
11422;SDS011;5768;51.476;7.210;2022-08-19T11:47:56;17.90;;;16.38;;
11422;SDS011;5768;51.476;7.210;2022-08-19T11:53:00;18.13;;;16.38;;
11422;SDS011;5768;51.476;7.210;2022-08-19T11:58:02;15.70;;;14.20;;
11422;SDS011;5768;51.476;7.210;2022-08-19T12:03:06;15.50;;;14.00;;
11422;SDS011;5768;51.476;7.210;2022-08-19T12:08:10;13.10;;;12.00;;
11422;SDS011;5768;51.476;7.210;2022-08-19T12:13:15;11.32;;;10.30;;
11422;SDS011;5768;51.476;7.210;2022-08-19T12:18:18;11.65;;;10.45;;
11422;SDS011;5768;51.476;7.210;2022-08-19T12:23:30;11.75;;;10.52;;
11422;SDS011;5768;51.476;7.210;2022-08-19T12:28:34;12.32;;;11.15;;
11422;SDS011;5768;51.476;7.210;2022-08-19T12:33:37;10.00;;;9.00;;
11422;SDS011;5768;51.476;7.210;2022-08-19T12:38:42;9.60;;;8.32;;
11422;SDS011;5768;51.476;7.210;2022-08-19T12:43:45;9.77;;;8.98;;
11422;SDS011;5768;51.476;7.210;2022-08-19T12:48:49;7.82;;;6.40;;
11422;SDS011;5768;51.476;7.210;2022-08-19T12:53:55;7.80;;;7.13;;
11422;SDS011;5768;51.476;7.210;2022-08-19T12:59:00;9.30;;;5.85;;
11422;SDS011;5768;51.476;7.210;2022-08-19T13:04:08;6.35;;;5.75;;
11422;SDS011;5768;51.476;7.210;2022-08-19T13:09:12;6.13;;;5.53;;
11422;SDS011;5768;51.476;7.210;2022-08-19T13:14:15;6.32;;;5.32;;
11422;SDS011;5768;51.476;7.210;2022-08-19T13:19:19;8.88;;;5.18;;
11422;SDS011;5768;51.476;7.210;2022-08-19T13:24:25;6.65;;;6.05;;
11422;SDS011;5768;51.476;7.210;2022-08-19T13:29:27;6.85;;;6.18;;
11422;SDS011;5768;51.476;7.210;2022-08-19T13:34:48;6.55;;;5.30;;
11422;SDS011;5768;51.476;7.210;2022-08-19T13:39:52;5.88;;;5.30;;
11422;SDS011;5768;51.476;7.210;2022-08-19T13:44:54;6.20;;;5.00;;
11422;SDS011;5768;51.476;7.210;2022-08-19T13:49:58;6.22;;;5.50;;
11422;SDS011;5768;51.476;7.210;2022-08-19T13:55:07;5.25;;;4.78;;
11422;SDS011;5768;51.476;7.210;2022-08-19T14:00:12;5.57;;;5.18;;
11422;SDS011;5768;51.476;7.210;2022-08-19T14:05:21;6.00;;;5.18;;
11422;SDS011;5768;51.476;7.210;2022-08-19T14:10:27;5.53;;;4.90;;
11422;SDS011;5768;51.476;7.210;2022-08-19T14:15:33;7.07;;;4.65;;
11422;SDS011;5768;51.476;7.210;2022-08-19T14:20:37;8.13;;;5.00;;
11422;SDS011;5768;51.476;7.210;2022-08-19T14:25:41;5.10;;;4.70;;
11422;SDS011;5768;51.476;7.210;2022-08-19T14:30:47;7.35;;;4.43;;
11422;SDS011;5768;51.476;7.210;2022-08-19T14:35:49;4.30;;;3.90;;
11422;SDS011;5768;51.476;7.210;2022-08-19T14:40:53;7.45;;;4.43;;
11422;SDS011;5768;51.476;7.210;2022-08-19T14:45:57;6.72;;;4.10;;
11422;SDS011;5768;51.476;7.210;2022-08-19T14:51:00;3.90;;;3.35;;
11422;SDS011;5768;51.476;7.210;2022-08-19T14:56:08;6.30;;;3.63;;
11422;SDS011;5768;51.476;7.210;2022-08-19T15:01:12;5.18;;;4.22;;
11422;SDS011;5768;51.476;7.210;2022-08-19T15:06:15;6.97;;;4.60;;
11422;SDS011;5768;51.476;7.210;2022-08-19T15:11:19;6.70;;;4.22;;
11422;SDS011;5768;51.476;7.210;2022-08-19T15:16:31;4.57;;;4.18;;
11422;SDS011;5768;51.476;7.210;2022-08-19T15:21:34;4.97;;;4.38;;
11422;SDS011;5768;51.476;7.210;2022-08-19T15:26:39;5.28;;;4.43;;
11422;SDS011;5768;51.476;7.210;2022-08-19T15:31:42;4.82;;;4.43;;
11422;SDS011;5768;51.476;7.210;2022-08-19T15:36:48;5.10;;;4.55;;
11422;SDS011;5768;51.476;7.210;2022-08-19T15:41:52;5.22;;;4.60;;
11422;SDS011;5768;51.476;7.210;2022-08-19T15:46:55;5.32;;;4.82;;
11422;SDS011;5768;51.476;7.210;2022-08-19T15:51:57;6.18;;;4.57;;
11422;SDS011;5768;51.476;7.210;2022-08-19T15:57:02;5.40;;;4.90;;
11422;SDS011;5768;51.476;7.210;2022-08-19T16:02:23;5.95;;;4.97;;
11422;SDS011;5768;51.476;7.210;2022-08-19T16:07:45;8.10;;;5.05;;
11422;SDS011;5768;51.476;7.210;2022-08-19T16:12:49;6.45;;;5.57;;
11422;SDS011;5768;51.476;7.210;2022-08-19T16:17:52;6.07;;;5.03;;
11422;SDS011;5768;51.476;7.210;2022-08-19T16:22:55;4.75;;;4.25;;
11422;SDS011;5768;51.476;7.210;2022-08-19T16:28:00;4.53;;;4.13;;
11422;SDS011;5768;51.476;7.210;2022-08-19T16:33:03;4.80;;;3.90;;
11422;SDS011;5768;51.476;7.210;2022-08-19T16:38:06;5.75;;;3.90;;
11422;SDS011;5768;51.476;7.210;2022-08-19T16:43:10;5.93;;;4.20;;
11422;SDS011;5768;51.476;7.210;2022-08-19T16:48:12;4.65;;;4.25;;
11422;SDS011;5768;51.476;7.210;2022-08-19T16:53:15;5.05;;;4.40;;
11422;SDS011;5768;51.476;7.210;2022-08-19T16:58:22;6.57;;;5.18;;
11422;SDS011;5768;51.476;7.210;2022-08-19T17:03:27;6.80;;;5.78;;
11422;SDS011;5768;51.476;7.210;2022-08-19T17:08:30;5.63;;;5.13;;
11422;SDS011;5768;51.476;7.210;2022-08-19T17:13:34;8.43;;;6.70;;
11422;SDS011;5768;51.476;7.210;2022-08-19T17:18:38;9.23;;;6.85;;
11422;SDS011;5768;51.476;7.210;2022-08-19T17:23:52;9.98;;;6.78;;
11422;SDS011;5768;51.476;7.210;2022-08-19T17:28:57;8.80;;;6.80;;
11422;SDS011;5768;51.476;7.210;2022-08-19T17:34:00;9.30;;;7.85;;
11422;SDS011;5768;51.476;7.210;2022-08-19T17:39:04;9.45;;;8.45;;
11422;SDS011;5768;51.476;7.210;2022-08-19T17:44:13;10.82;;;8.93;;
11422;SDS011;5768;51.476;7.210;2022-08-19T17:49:16;10.18;;;8.85;;
11422;SDS011;5768;51.476;7.210;2022-08-19T17:54:19;12.68;;;9.90;;
11422;SDS011;5768;51.476;7.210;2022-08-19T17:59:23;10.35;;;9.27;;
11422;SDS011;5768;51.476;7.210;2022-08-19T18:04:25;9.80;;;8.80;;
11422;SDS011;5768;51.476;7.210;2022-08-19T18:09:36;9.90;;;8.90;;
11422;SDS011;5768;51.476;7.210;2022-08-19T18:14:42;10.98;;;8.25;;
11422;SDS011;5768;51.476;7.210;2022-08-19T18:19:45;9.68;;;8.65;;
11422;SDS011;5768;51.476;7.210;2022-08-19T18:24:48;10.20;;;9.13;;
11422;SDS011;5768;51.476;7.210;2022-08-19T18:29:51;9.23;;;8.30;;
11422;SDS011;5768;51.476;7.210;2022-08-19T18:34:58;9.07;;;7.95;;
11422;SDS011;5768;51.476;7.210;2022-08-19T18:40:01;8.73;;;7.55;;
11422;SDS011;5768;51.476;7.210;2022-08-19T18:45:24;8.85;;;6.95;;
11422;SDS011;5768;51.476;7.210;2022-08-19T18:50:55;10.70;;;7.53;;
11422;SDS011;5768;51.476;7.210;2022-08-19T18:56:00;7.60;;;6.68;;
11422;SDS011;5768;51.476;7.210;2022-08-19T19:01:05;9.32;;;7.43;;
11422;SDS011;5768;51.476;7.210;2022-08-19T19:06:11;10.77;;;8.70;;
11422;SDS011;5768;51.476;7.210;2022-08-19T19:11:19;11.80;;;9.43;;
11422;SDS011;5768;51.476;7.210;2022-08-19T19:16:26;11.02;;;9.93;;
11422;SDS011;5768;51.476;7.210;2022-08-19T19:21:28;14.20;;;10.35;;
11422;SDS011;5768;51.476;7.210;2022-08-19T19:26:30;13.60;;;12.18;;
11422;SDS011;5768;51.476;7.210;2022-08-19T19:31:34;14.05;;;11.88;;
11422;SDS011;5768;51.476;7.210;2022-08-19T19:36:36;14.25;;;12.85;;
11422;SDS011;5768;51.476;7.210;2022-08-19T19:41:39;14.57;;;12.02;;
11422;SDS011;5768;51.476;7.210;2022-08-19T19:46:43;12.63;;;11.32;;
11422;SDS011;5768;51.476;7.210;2022-08-19T19:51:46;13.07;;;11.88;;
11422;SDS011;5768;51.476;7.210;2022-08-19T19:56:48;13.48;;;12.10;;
11422;SDS011;5768;51.476;7.210;2022-08-19T20:01:51;13.52;;;12.23;;
11422;SDS011;5768;51.476;7.210;2022-08-19T20:06:54;12.25;;;11.05;;
11422;SDS011;5768;51.476;7.210;2022-08-19T20:11:56;12.25;;;11.05;;
11422;SDS011;5768;51.476;7.210;2022-08-19T20:17:00;11.85;;;10.73;;
11422;SDS011;5768;51.476;7.210;2022-08-19T20:22:04;10.77;;;9.20;;
11422;SDS011;5768;51.476;7.210;2022-08-19T20:27:06;11.32;;;9.10;;
11422;SDS011;5768;51.476;7.210;2022-08-19T20:32:10;8.82;;;8.00;;
11422;SDS011;5768;51.476;7.210;2022-08-19T20:37:13;9.75;;;7.10;;
11422;SDS011;5768;51.476;7.210;2022-08-19T20:42:15;7.20;;;6.63;;
11422;SDS011;5768;51.476;7.210;2022-08-19T20:47:19;7.07;;;6.35;;
11422;SDS011;5768;51.476;7.210;2022-08-19T20:52:21;7.10;;;6.47;;
11422;SDS011;5768;51.476;7.210;2022-08-19T20:57:23;7.70;;;6.90;;
11422;SDS011;5768;51.476;7.210;2022-08-19T21:02:26;8.20;;;6.30;;
11422;SDS011;5768;51.476;7.210;2022-08-19T21:07:28;7.90;;;7.15;;
11422;SDS011;5768;51.476;7.210;2022-08-19T21:12:31;9.65;;;7.20;;
11422;SDS011;5768;51.476;7.210;2022-08-19T21:17:34;7.53;;;6.80;;
11422;SDS011;5768;51.476;7.210;2022-08-19T21:22:36;6.93;;;5.93;;
11422;SDS011;5768;51.476;7.210;2022-08-19T21:27:39;7.70;;;6.75;;
11422;SDS011;5768;51.476;7.210;2022-08-19T21:32:45;9.90;;;6.50;;
11422;SDS011;5768;51.476;7.210;2022-08-19T21:37:47;6.93;;;6.32;;
11422;SDS011;5768;51.476;7.210;2022-08-19T21:42:50;7.38;;;6.68;;
11422;SDS011;5768;51.476;7.210;2022-08-19T21:47:54;7.50;;;6.53;;
11422;SDS011;5768;51.476;7.210;2022-08-19T21:52:56;6.55;;;5.90;;
11422;SDS011;5768;51.476;7.210;2022-08-19T21:57:59;8.02;;;6.80;;
11422;SDS011;5768;51.476;7.210;2022-08-19T22:03:03;7.25;;;6.55;;
11422;SDS011;5768;51.476;7.210;2022-08-19T22:08:06;7.40;;;6.63;;
11422;SDS011;5768;51.476;7.210;2022-08-19T22:13:08;8.70;;;7.90;;
11422;SDS011;5768;51.476;7.210;2022-08-19T22:18:12;9.32;;;8.35;;
11422;SDS011;5768;51.476;7.210;2022-08-19T22:23:18;10.55;;;8.60;;
11422;SDS011;5768;51.476;7.210;2022-08-19T22:28:20;10.05;;;8.45;;
11422;SDS011;5768;51.476;7.210;2022-08-19T22:33:24;10.05;;;9.05;;
11422;SDS011;5768;51.476;7.210;2022-08-19T22:38:29;8.57;;;7.60;;
11422;SDS011;5768;51.476;7.210;2022-08-19T22:43:31;6.78;;;6.10;;
11422;SDS011;5768;51.476;7.210;2022-08-19T22:48:35;6.72;;;6.10;;
11422;SDS011;5768;51.476;7.210;2022-08-19T22:53:38;7.32;;;6.05;;
11422;SDS011;5768;51.476;7.210;2022-08-19T22:58:44;6.70;;;5.90;;
11422;SDS011;5768;51.476;7.210;2022-08-19T23:03:51;6.53;;;5.90;;
11422;SDS011;5768;51.476;7.210;2022-08-19T23:08:55;9.95;;;8.95;;
11422;SDS011;5768;51.476;7.210;2022-08-19T23:13:57;12.98;;;11.05;;
11422;SDS011;5768;51.476;7.210;2022-08-19T23:19:00;14.63;;;13.00;;
11422;SDS011;5768;51.476;7.210;2022-08-19T23:24:04;14.38;;;12.60;;
11422;SDS011;5768;51.476;7.210;2022-08-19T23:29:06;18.52;;;15.60;;
11422;SDS011;5768;51.476;7.210;2022-08-19T23:34:27;17.08;;;14.70;;
11422;SDS011;5768;51.476;7.210;2022-08-19T23:39:29;20.45;;;16.10;;
11422;SDS011;5768;51.476;7.210;2022-08-19T23:44:31;18.75;;;15.20;;
11422;SDS011;5768;51.476;7.210;2022-08-19T23:49:35;21.95;;;17.00;;
11422;SDS011;5768;51.476;7.210;2022-08-19T23:54:38;21.08;;;16.70;;
11422;SDS011;5768;51.476;7.210;2022-08-19T23:59:40;22.55;;;17.27;;
